createdAt,value
2022-09-03T00:02:07.940Z,86.90
2022-09-03T00:05:05.341Z,86.60
2022-09-03T00:07:42.685Z,86.70
2022-09-03T00:10:22.579Z,86.50
2022-09-03T00:12:52.515Z,86.70
2022-09-03T00:15:22.192Z,86.80
2022-09-03T00:18:04.691Z,86.70
2022-09-03T00:20:43.601Z,86.70
2022-09-03T00:23:20.557Z,86.50
2022-09-03T00:25:54.601Z,86.60
2022-09-03T00:28:33.046Z,86.50
2022-09-03T00:31:12.641Z,86.40
2022-09-03T00:33:41.763Z,86.60
2022-09-03T00:36:34.846Z,86.40
2022-09-03T00:39:01.779Z,86.60
2022-09-03T00:41:41.409Z,86.40
2022-09-03T00:44:45.485Z,86.60
2022-09-03T00:47:39.274Z,86.60
2022-09-03T00:50:36.867Z,86.40
2022-09-03T00:53:28.509Z,86.30
2022-09-03T00:56:22.500Z,86.40
2022-09-03T00:59:10.445Z,86.30
2022-09-03T01:02:02.863Z,86.10
2022-09-03T01:04:49.771Z,86.00
2022-09-03T01:07:41.186Z,86.00
2022-09-03T01:10:14.222Z,86.00
2022-09-03T01:12:58.297Z,85.90
2022-09-03T01:16:02.973Z,85.80
2022-09-03T01:19:04.338Z,85.70
2022-09-03T01:22:38.400Z,85.70
2022-09-03T01:25:39.102Z,85.60
2022-09-03T01:28:14.790Z,85.60
2022-09-03T01:30:49.310Z,85.40
2022-09-03T01:33:58.579Z,85.40
2022-09-03T01:36:49.804Z,85.50
2022-09-03T01:40:07.659Z,85.30
2022-09-03T01:43:14.756Z,85.20
2022-09-03T01:46:02.472Z,85.10
2022-09-03T01:49:24.872Z,85.00
2022-09-03T01:52:24.513Z,84.60
2022-09-03T01:55:25.536Z,84.80
2022-09-03T01:58:21.869Z,84.40
2022-09-03T02:01:00.720Z,84.30
2022-09-03T02:03:40.757Z,84.20
2022-09-03T02:06:11.002Z,84.30
2022-09-03T02:08:38.700Z,84.20
2022-09-03T02:11:09.132Z,84.00
2022-09-03T02:13:42.428Z,84.00
2022-09-03T02:16:20.332Z,84.10
2022-09-03T02:18:52.056Z,84.00
2022-09-03T02:21:22.359Z,84.00
2022-09-03T02:23:50.148Z,83.80
2022-09-03T02:26:22.365Z,83.70
2022-09-03T02:28:51.081Z,83.70
2022-09-03T02:31:18.211Z,83.50
2022-09-03T02:33:47.873Z,83.40
2022-09-03T02:36:19.796Z,83.30
2022-09-03T02:38:47.680Z,83.20
2022-09-03T02:41:15.091Z,83.20
2022-09-03T02:43:50.734Z,83.20
2022-09-03T02:46:23.478Z,83.30
2022-09-03T02:48:50.468Z,83.30
2022-09-03T02:51:17.375Z,83.10
2022-09-03T02:53:44.474Z,83.20
2022-09-03T02:56:12.288Z,83.10
2022-09-03T02:58:39.214Z,83.30
2022-09-03T03:01:06.424Z,83.30
2022-09-03T03:03:33.465Z,83.50
2022-09-03T03:06:05.632Z,83.50
2022-09-03T03:08:34.737Z,83.50
2022-09-03T03:11:02.059Z,83.60
2022-09-03T03:13:30.756Z,83.70
2022-09-03T03:16:03.990Z,84.00
2022-09-03T03:18:30.956Z,84.20
2022-09-03T03:20:58.171Z,84.40
2022-09-03T03:23:25.128Z,84.50
2022-09-03T03:25:52.109Z,84.70
2022-09-03T03:28:20.589Z,84.90
2022-09-03T03:30:48.921Z,85.00
2022-09-03T03:33:16.000Z,85.10
2022-09-03T03:35:43.017Z,85.10
2022-09-03T03:38:10.221Z,85.30
2022-09-03T03:40:39.304Z,85.10
2022-09-03T03:43:06.304Z,85.60
2022-09-03T03:45:33.369Z,85.70
2022-09-03T03:48:00.331Z,85.80
2022-09-03T03:50:27.966Z,86.10
2022-09-03T03:52:54.933Z,86.30
2022-09-03T03:55:22.428Z,86.40
2022-09-03T03:57:49.545Z,86.70
2022-09-03T04:00:16.784Z,87.00
2022-09-03T04:02:43.942Z,87.20
2022-09-03T04:05:10.931Z,87.10
2022-09-03T04:07:38.455Z,87.00
2022-09-03T04:10:06.137Z,87.20
2022-09-03T04:12:33.215Z,87.40
2022-09-03T04:15:00.147Z,87.70
2022-09-03T04:17:28.354Z,87.80
2022-09-03T04:19:55.255Z,87.80
2022-09-03T04:22:22.288Z,87.70
2022-09-03T04:24:49.187Z,87.70
2022-09-03T04:27:16.156Z,88.00
2022-09-03T04:29:43.076Z,88.00
2022-09-03T04:32:29.072Z,88.00
2022-09-03T04:34:56.011Z,87.90
2022-09-03T04:37:22.948Z,87.80
2022-09-03T04:39:49.924Z,87.90
2022-09-03T04:42:16.908Z,88.10
2022-09-03T04:44:43.822Z,88.30
2022-09-03T04:47:10.711Z,88.50
2022-09-03T04:49:37.636Z,88.40
2022-09-03T04:52:04.539Z,88.60
2022-09-03T04:54:31.614Z,88.70
2022-09-03T04:56:58.528Z,88.80
2022-09-03T04:59:25.464Z,88.80
2022-09-03T05:01:52.824Z,89.50
2022-09-03T05:04:19.924Z,88.90
2022-09-03T05:06:46.830Z,89.00
2022-09-03T05:09:13.893Z,89.20
2022-09-03T05:11:40.878Z,89.20
2022-09-03T05:14:11.745Z,89.00
2022-09-03T05:16:39.185Z,89.40
2022-09-03T05:19:06.181Z,89.30
2022-09-03T05:21:33.081Z,89.50
2022-09-03T05:24:01.702Z,89.60
2022-09-03T05:26:32.944Z,89.80
2022-09-03T05:29:07.563Z,89.80
2022-09-03T05:31:39.451Z,90.00
2022-09-03T05:34:06.855Z,89.80
2022-09-03T05:36:36.715Z,89.90
2022-09-03T05:39:05.675Z,90.00
2022-09-03T05:41:34.151Z,90.00
2022-09-03T05:44:01.294Z,89.90
2022-09-03T05:46:37.486Z,90.00
2022-09-03T05:49:07.027Z,90.00
2022-09-03T05:51:36.512Z,90.10
2022-09-03T05:54:03.901Z,90.10
2022-09-03T05:56:33.471Z,90.20
2022-09-03T05:59:05.659Z,90.10
2022-09-03T06:01:45.743Z,90.20
2022-09-03T06:04:17.899Z,90.20
2022-09-03T06:06:46.958Z,90.30
2022-09-03T06:09:18.060Z,90.40
2022-09-03T06:11:46.271Z,90.40
2022-09-03T06:14:14.651Z,90.30
2022-09-03T06:16:45.083Z,90.30
2022-09-03T06:19:14.204Z,90.30
2022-09-03T06:21:43.353Z,90.20
2022-09-03T06:24:13.300Z,90.10
2022-09-03T06:26:42.953Z,90.00
2022-09-03T06:29:10.606Z,89.90
2022-09-03T06:31:37.826Z,89.30
2022-09-03T06:34:05.994Z,89.00
2022-09-03T06:36:33.616Z,88.70
2022-09-03T06:39:01.046Z,88.50
2022-09-03T06:41:33.030Z,88.40
2022-09-03T06:44:06.445Z,88.40
2022-09-03T06:46:36.346Z,87.50
2022-09-03T06:49:03.537Z,86.80
2022-09-03T06:51:33.183Z,86.10
2022-09-03T06:54:09.464Z,86.70
2022-09-03T06:56:40.447Z,86.30
2022-09-03T06:59:11.551Z,85.70
2022-09-03T07:01:40.896Z,84.30
2022-09-03T07:04:12.882Z,84.30
2022-09-03T07:06:42.379Z,83.50
2022-09-03T07:09:11.683Z,83.60
2022-09-03T07:11:46.719Z,83.10
2022-09-03T07:14:14.927Z,82.70
2022-09-03T07:16:43.071Z,82.50
2022-09-03T07:19:10.193Z,81.30
2022-09-03T07:21:37.838Z,81.90
2022-09-03T07:24:06.058Z,80.80
2022-09-03T07:26:39.299Z,80.00
2022-09-03T07:29:07.898Z,80.50
2022-09-03T07:31:41.030Z,80.50
2022-09-03T07:34:11.556Z,79.50
2022-09-03T07:36:46.901Z,80.00
2022-09-03T07:39:17.049Z,78.00
2022-09-03T07:41:48.145Z,76.80
2022-09-03T07:44:19.664Z,77.30
2022-09-03T07:46:47.919Z,76.30
2022-09-03T07:49:15.286Z,77.20
2022-09-03T07:51:42.188Z,75.40
2022-09-03T07:54:11.371Z,76.10
2022-09-03T07:56:40.184Z,76.00
2022-09-03T07:59:08.275Z,74.10
2022-09-03T08:01:37.001Z,74.30
2022-09-03T08:04:06.628Z,74.90
2022-09-03T08:06:37.614Z,73.90
2022-09-03T08:09:09.632Z,74.50
2022-09-03T08:11:39.643Z,74.70
2022-09-03T08:14:10.028Z,75.30
2022-09-03T08:16:48.071Z,73.80
2022-09-03T08:19:17.120Z,73.60
2022-09-03T08:21:44.659Z,72.80
2022-09-03T08:24:15.474Z,72.20
2022-09-03T08:26:47.674Z,73.10
2022-09-03T08:29:18.309Z,71.70
2022-09-03T08:31:45.385Z,70.50
2022-09-03T08:34:14.498Z,70.40
2022-09-03T08:36:41.623Z,69.20
2022-09-03T08:39:11.078Z,68.30
2022-09-03T08:41:53.063Z,68.40
2022-09-03T08:44:31.967Z,68.30
2022-09-03T08:47:38.836Z,67.90
2022-09-03T08:50:22.803Z,68.10
2022-09-03T08:52:55.288Z,68.80
2022-09-03T08:56:14.671Z,68.50
2022-09-03T08:58:44.999Z,68.50
2022-09-03T09:01:44.054Z,69.50
2022-09-03T09:04:29.737Z,68.20
2022-09-03T09:07:16.935Z,66.80
2022-09-03T09:10:16.676Z,66.90
2022-09-03T09:13:20.262Z,65.80
2022-09-03T09:16:08.826Z,66.50
2022-09-03T09:18:43.188Z,65.40
2022-09-03T09:21:21.949Z,65.70
2022-09-03T09:23:51.966Z,65.50
2022-09-03T09:26:21.885Z,65.50
2022-09-03T09:29:00.638Z,66.00
2022-09-03T09:31:30.930Z,64.90
2022-09-03T09:34:06.995Z,65.30
2022-09-03T09:36:57.206Z,65.30
2022-09-03T09:39:24.240Z,64.80
2022-09-03T09:42:21.922Z,63.40
2022-09-03T09:44:48.877Z,63.10
2022-09-03T09:47:25.872Z,62.60
2022-09-03T09:50:05.013Z,60.20
2022-09-03T09:52:32.463Z,61.00
2022-09-03T09:55:18.146Z,61.90
2022-09-03T09:57:45.433Z,60.70
2022-09-03T10:00:16.750Z,59.60
2022-09-03T10:02:54.355Z,59.50
2022-09-03T10:05:28.414Z,59.80
2022-09-03T10:07:57.319Z,61.20
2022-09-03T10:10:25.597Z,60.70
2022-09-03T10:13:01.648Z,60.00
2022-09-03T10:15:46.592Z,59.30
2022-09-03T10:18:38.013Z,58.90
2022-09-03T10:21:16.105Z,57.90
2022-09-03T10:23:58.762Z,56.40
2022-09-03T10:26:33.144Z,56.90
2022-09-03T10:29:05.745Z,58.80
2022-09-03T10:32:00.716Z,57.50
2022-09-03T10:34:53.176Z,57.80
2022-09-03T10:37:34.375Z,57.70
2022-09-03T10:40:42.275Z,56.70
2022-09-03T10:43:51.954Z,56.70
2022-09-03T10:46:27.521Z,56.40
2022-09-03T10:49:15.066Z,56.40
2022-09-03T10:52:07.043Z,56.00
2022-09-03T10:55:31.504Z,55.10
2022-09-03T10:58:38.093Z,55.20
2022-09-03T11:01:25.032Z,55.20
2022-09-03T11:04:15.199Z,55.40
2022-09-03T11:06:53.540Z,55.30
2022-09-03T11:09:29.231Z,55.50
2022-09-03T11:12:03.776Z,55.20
2022-09-03T11:14:40.249Z,55.90
2022-09-03T11:17:17.821Z,55.80
2022-09-03T11:19:52.423Z,55.60
2022-09-03T11:22:23.110Z,55.60
2022-09-03T11:25:00.809Z,54.80
2022-09-03T11:28:01.129Z,54.90
2022-09-03T11:30:58.982Z,53.70
2022-09-03T11:33:28.324Z,52.70
2022-09-03T11:36:01.424Z,52.30
2022-09-03T11:38:32.042Z,51.40
2022-09-03T11:41:35.756Z,52.50
2022-09-03T11:44:20.451Z,50.80
2022-09-03T11:46:58.858Z,50.70
2022-09-03T11:49:30.804Z,52.20
2022-09-03T11:52:04.529Z,51.20
2022-09-03T11:54:45.112Z,52.10
2022-09-03T11:57:23.712Z,51.90
2022-09-03T11:59:50.764Z,51.60
2022-09-03T12:02:28.943Z,51.10
2022-09-03T12:05:26.532Z,50.90
2022-09-03T12:08:16.590Z,51.50
2022-09-03T12:10:59.348Z,50.70
2022-09-03T12:13:31.886Z,50.00
2022-09-03T12:16:29.921Z,50.90
2022-09-03T12:19:06.127Z,50.60
2022-09-03T12:21:41.072Z,50.70
2022-09-03T12:24:13.586Z,49.50
2022-09-03T12:26:43.314Z,48.60
2022-09-03T12:29:29.066Z,49.00
2022-09-03T12:32:11.975Z,48.70
2022-09-03T12:34:38.874Z,48.30
2022-09-03T12:38:04.195Z,49.20
2022-09-03T12:40:24.337Z,49.50
2022-09-03T12:42:51.724Z,49.00
2022-09-03T12:45:25.623Z,48.30
2022-09-03T12:47:53.571Z,48.60
2022-09-03T12:50:24.175Z,47.70
2022-09-03T12:52:54.260Z,48.70
2022-09-03T12:55:53.925Z,48.40
2022-09-03T12:58:32.052Z,48.70
2022-09-03T13:01:42.000Z,48.20
2022-09-03T13:04:19.384Z,47.80
2022-09-03T13:06:56.806Z,48.40
2022-09-03T13:09:26.473Z,47.10
2022-09-03T13:11:55.438Z,48.10
2022-09-03T13:14:22.970Z,48.10
2022-09-03T13:17:36.750Z,48.20
2022-09-03T13:20:35.551Z,48.10
2022-09-03T13:23:36.311Z,47.40
2022-09-03T13:26:21.756Z,47.80
2022-09-03T13:29:25.700Z,48.50
2022-09-03T13:32:08.488Z,48.00
2022-09-03T13:34:42.260Z,48.00
2022-09-03T13:37:39.094Z,48.60
2022-09-03T13:40:38.668Z,48.70
2022-09-03T13:43:45.774Z,48.60
2022-09-03T13:46:31.409Z,48.10
2022-09-03T13:49:31.739Z,47.70
2022-09-03T13:52:07.740Z,48.30
2022-09-03T13:54:49.136Z,48.40
2022-09-03T13:57:29.389Z,48.60
2022-09-03T14:00:08.462Z,47.90
2022-09-03T14:02:58.025Z,48.40
2022-09-03T14:06:02.230Z,48.90
2022-09-03T14:08:48.343Z,49.40
2022-09-03T14:11:49.480Z,49.50
2022-09-03T14:14:37.646Z,47.90
2022-09-03T14:17:15.412Z,49.20
2022-09-03T14:20:07.082Z,48.10
2022-09-03T14:23:07.407Z,48.40
2022-09-03T14:25:34.330Z,49.00
2022-09-03T14:28:27.449Z,48.90
2022-09-03T14:31:52.293Z,47.60
2022-09-03T14:34:51.939Z,47.80
2022-09-03T14:37:49.455Z,47.60
2022-09-03T14:40:40.779Z,48.00
2022-09-03T14:43:51.550Z,48.80
2022-09-03T14:46:58.467Z,49.20
2022-09-03T14:50:01.636Z,48.20
2022-09-03T14:52:59.755Z,47.50
2022-09-03T14:55:48.764Z,47.20
2022-09-03T14:58:58.790Z,47.00
2022-09-03T15:01:37.625Z,47.90
2022-09-03T15:04:24.330Z,48.10
2022-09-03T15:07:34.192Z,49.00
2022-09-03T15:10:24.770Z,49.00
2022-09-03T15:13:22.066Z,48.70
2022-09-03T15:16:09.243Z,49.40
2022-09-03T15:19:36.664Z,48.80
2022-09-03T15:22:44.751Z,49.00
2022-09-03T15:25:37.224Z,48.90
2022-09-03T15:28:45.236Z,49.10
2022-09-03T15:31:57.948Z,49.40
2022-09-03T15:34:43.369Z,49.20
2022-09-03T15:37:23.394Z,49.70
2022-09-03T15:40:03.651Z,50.00
2022-09-03T15:42:31.332Z,50.00
2022-09-03T15:45:08.956Z,49.90
2022-09-03T15:47:54.368Z,48.90
2022-09-03T15:50:52.696Z,49.10
2022-09-03T15:53:52.712Z,48.70
2022-09-03T15:56:38.032Z,48.50
2022-09-03T15:59:15.084Z,48.20
2022-09-03T16:01:57.732Z,48.30
2022-09-03T16:04:58.888Z,48.50
2022-09-03T16:07:38.012Z,48.30
2022-09-03T16:10:29.969Z,48.70
2022-09-03T16:13:15.275Z,49.40
2022-09-03T16:15:52.858Z,49.30
2022-09-03T16:18:36.946Z,49.70
2022-09-03T16:21:20.439Z,49.60
2022-09-03T16:24:23.138Z,49.70
2022-09-03T16:27:14.200Z,49.70
2022-09-03T16:29:41.660Z,50.20
2022-09-03T16:32:41.686Z,49.90
2022-09-03T16:35:26.530Z,50.00
2022-09-03T16:38:38.732Z,50.30
2022-09-03T16:41:36.992Z,50.60
2022-09-03T16:44:25.102Z,50.60
2022-09-03T16:46:54.977Z,50.90
2022-09-03T16:50:07.159Z,51.00
2022-09-03T16:52:48.055Z,51.20
2022-09-03T16:55:52.409Z,51.60
2022-09-03T16:58:49.472Z,51.90
2022-09-03T17:01:43.198Z,51.70
2022-09-03T17:04:30.135Z,52.30
2022-09-03T17:07:36.655Z,52.50
2022-09-03T17:10:48.232Z,52.70
2022-09-03T17:13:46.375Z,53.40
2022-09-03T17:16:36.141Z,53.90
2022-09-03T17:19:21.364Z,54.20
2022-09-03T17:22:23.607Z,54.50
2022-09-03T17:25:04.644Z,54.40
2022-09-03T17:27:53.584Z,54.40
2022-09-03T17:30:49.508Z,54.70
2022-09-03T17:34:00.101Z,54.90
2022-09-03T17:36:31.419Z,54.70
2022-09-03T17:39:30.855Z,54.70
2022-09-03T17:42:06.585Z,54.80
2022-09-03T17:45:15.243Z,54.90
2022-09-03T17:48:11.252Z,55.20
2022-09-03T17:50:59.283Z,55.40
2022-09-03T17:53:44.428Z,56.10
2022-09-03T17:56:35.643Z,55.70
2022-09-03T17:59:10.667Z,55.60
2022-09-03T18:01:48.439Z,55.70
2022-09-03T18:04:45.396Z,55.80
2022-09-03T18:07:50.125Z,56.00
2022-09-03T18:10:57.756Z,56.00
2022-09-03T18:13:46.116Z,56.10
2022-09-03T18:16:34.960Z,56.10
2022-09-03T18:20:07.357Z,56.10
2022-09-03T18:23:09.525Z,56.20
2022-09-03T18:25:57.872Z,56.10
2022-09-03T18:28:57.984Z,56.20
2022-09-03T18:31:43.764Z,56.70
2022-09-03T18:34:29.055Z,57.00
2022-09-03T18:37:18.854Z,57.90
2022-09-03T18:40:05.867Z,58.50
2022-09-03T18:43:02.809Z,59.30
2022-09-03T18:49:21.727Z,60.40
2022-09-03T18:52:36.354Z,61.00
2022-09-03T18:56:03.942Z,61.30
2022-09-03T18:59:12.115Z,61.50
2022-09-03T19:01:59.925Z,61.50
2022-09-03T19:05:18.814Z,62.30
2022-09-03T19:08:16.313Z,63.10
2022-09-03T19:11:20.304Z,63.00
2022-09-03T19:14:06.299Z,63.60
2022-09-03T19:17:13.467Z,63.90
2022-09-03T19:20:42.819Z,64.20
2022-09-03T19:23:29.204Z,64.40
2022-09-03T19:26:30.380Z,64.80
2022-09-03T19:29:22.639Z,65.00
2022-09-03T19:32:19.656Z,66.10
2022-09-03T19:35:33.382Z,66.10
2022-09-03T19:38:59.208Z,66.80
2022-09-03T19:42:03.581Z,66.90
2022-09-03T19:45:11.656Z,67.10
2022-09-03T19:48:45.746Z,67.60
2022-09-03T19:51:39.487Z,67.90
2022-09-03T19:54:27.324Z,68.80
2022-09-03T19:57:16.151Z,68.60
2022-09-03T20:00:06.842Z,69.10
2022-09-03T20:02:59.029Z,69.80
2022-09-03T20:05:45.416Z,69.60
2022-09-03T20:08:35.364Z,70.80
2022-09-03T20:11:05.012Z,71.00
2022-09-03T20:13:52.864Z,71.40
2022-09-03T20:16:56.980Z,70.90
2022-09-03T20:19:45.603Z,72.30
2022-09-03T20:22:29.868Z,72.10
2022-09-03T20:25:28.733Z,71.30
2022-09-03T20:28:26.140Z,71.20
2022-09-03T20:31:06.952Z,70.70
2022-09-03T20:34:11.046Z,71.00
2022-09-03T20:36:55.498Z,70.80
2022-09-03T20:40:08.282Z,70.40
2022-09-03T20:43:08.086Z,70.70
2022-09-03T20:46:22.794Z,70.20
2022-09-03T20:49:20.120Z,70.90
2022-09-03T20:51:53.226Z,70.00
2022-09-03T20:54:36.041Z,69.70
2022-09-03T20:57:27.913Z,69.60
2022-09-03T21:00:13.886Z,69.60
2022-09-03T21:03:16.016Z,69.20
2022-09-03T21:06:14.989Z,69.10
2022-09-03T21:09:33.132Z,69.50
2022-09-03T21:12:30.201Z,69.30
2022-09-03T21:15:13.067Z,69.20
2022-09-03T21:18:13.866Z,69.10
2022-09-03T21:21:05.739Z,69.00
2022-09-03T21:23:41.066Z,68.80
2022-09-03T21:26:21.208Z,68.50
2022-09-03T21:29:07.918Z,68.40
2022-09-03T21:31:53.777Z,68.10
2022-09-03T21:34:37.252Z,68.00
2022-09-03T21:37:05.986Z,67.80
2022-09-03T21:39:51.750Z,68.10
2022-09-03T21:42:43.297Z,67.80
2022-09-03T21:45:41.112Z,67.60
2022-09-03T21:48:26.306Z,67.10
2022-09-03T21:51:00.593Z,67.10
2022-09-03T21:54:05.513Z,67.70
2022-09-03T21:57:18.876Z,66.60
2022-09-03T22:00:12.137Z,66.70
2022-09-03T22:02:42.208Z,66.70
2022-09-03T22:05:09.556Z,66.30
2022-09-03T22:08:14.338Z,66.40
2022-09-03T22:10:56.903Z,66.40
2022-09-03T22:13:54.358Z,66.40
2022-09-03T22:16:30.217Z,66.20
2022-09-03T22:18:57.257Z,66.10
2022-09-03T22:21:44.284Z,66.10
2022-09-03T22:24:49.883Z,66.00
2022-09-03T22:27:18.462Z,66.00
2022-09-03T22:30:06.156Z,65.70
2022-09-03T22:33:01.787Z,66.60
2022-09-03T22:36:02.881Z,65.90
2022-09-03T22:39:20.260Z,66.10
2022-09-03T22:41:53.091Z,66.30
2022-09-03T22:44:55.260Z,66.00
2022-09-03T22:48:02.810Z,66.30
2022-09-03T22:50:57.760Z,66.40
2022-09-03T22:54:01.806Z,66.40
2022-09-03T22:56:35.301Z,66.40
2022-09-03T22:59:19.656Z,66.40
2022-09-03T23:01:58.710Z,66.60
2022-09-03T23:04:34.935Z,66.50
2022-09-03T23:07:22.576Z,66.40
2022-09-03T23:10:04.370Z,66.40
2022-09-03T23:12:48.980Z,66.40
2022-09-03T23:15:30.561Z,66.40
2022-09-03T23:18:17.615Z,66.30
2022-09-03T23:21:22.123Z,66.10
2022-09-03T23:24:07.257Z,65.80
2022-09-03T23:26:49.356Z,66.00
2022-09-03T23:29:40.755Z,66.00
2022-09-03T23:32:09.380Z,65.80
2022-09-03T23:34:40.662Z,65.80
2022-09-03T23:37:48.114Z,65.90
2022-09-03T23:40:57.688Z,65.80
2022-09-03T23:43:47.431Z,65.90
2022-09-03T23:46:38.143Z,65.70
2022-09-03T23:49:30.789Z,65.70
2022-09-03T23:52:44.686Z,65.60
2022-09-03T23:55:55.951Z,65.80
2022-09-03T23:59:04.776Z,65.70
